sensor_id;sensor_type;location;lat;lon;timestamp;pressure;altitude;pressure_sealevel;temperature;humidity
47082;BME280;33066;49.296;14.470;2023-01-28T00:00:58;97354.63;;;6.14;33.35
47082;BME280;33066;49.296;14.470;2023-01-28T00:03:23;97357.02;;;6.46;33.45
47082;BME280;33066;49.296;14.470;2023-01-28T00:05:48;97356.61;;;6.58;33.45
47082;BME280;33066;49.296;14.470;2023-01-28T00:08:14;97358.95;;;6.60;33.26
47082;BME280;33066;49.296;14.470;2023-01-28T00:10:39;97360.69;;;6.57;33.21
47082;BME280;33066;49.296;14.470;2023-01-28T00:13:04;97361.02;;;6.62;33.31
47082;BME280;33066;49.296;14.470;2023-01-28T00:15:30;97359.39;;;6.43;33.02
47082;BME280;33066;49.296;14.470;2023-01-28T00:17:55;97359.69;;;6.71;33.01
47082;BME280;33066;49.296;14.470;2023-01-28T00:20:21;97360.66;;;6.49;32.98
47082;BME280;33066;49.296;14.470;2023-01-28T00:22:47;97362.20;;;6.73;33.00
47082;BME280;33066;49.296;14.470;2023-01-28T00:25:12;97359.98;;;6.74;32.91
47082;BME280;33066;49.296;14.470;2023-01-28T00:27:37;97360.95;;;6.77;33.02
47082;BME280;33066;49.296;14.470;2023-01-28T00:30:03;97361.77;;;6.78;32.93
47082;BME280;33066;49.296;14.470;2023-01-28T00:32:28;97362.54;;;6.72;32.88
47082;BME280;33066;49.296;14.470;2023-01-28T00:34:53;97360.56;;;6.60;32.93
47082;BME280;33066;49.296;14.470;2023-01-28T00:37:18;97360.99;;;6.11;33.02
47082;BME280;33066;49.296;14.470;2023-01-28T00:39:43;97360.04;;;6.62;33.31
47082;BME280;33066;49.296;14.470;2023-01-28T00:42:08;97359.55;;;6.82;33.00
47082;BME280;33066;49.296;14.470;2023-01-28T00:44:33;97361.67;;;6.46;33.24
47082;BME280;33066;49.296;14.470;2023-01-28T00:46:59;97364.39;;;6.09;33.34
47082;BME280;33066;49.296;14.470;2023-01-28T00:49:25;97365.83;;;6.26;33.76
47082;BME280;33066;49.296;14.470;2023-01-28T00:51:50;97368.29;;;6.29;33.94
47082;BME280;33066;49.296;14.470;2023-01-28T00:54:16;97368.12;;;6.31;34.04
47082;BME280;33066;49.296;14.470;2023-01-28T00:56:41;97367.42;;;6.32;34.22
47082;BME280;33066;49.296;14.470;2023-01-28T00:59:06;97370.12;;;6.27;34.38
47082;BME280;33066;49.296;14.470;2023-01-28T01:01:32;97368.57;;;6.34;34.36
47082;BME280;33066;49.296;14.470;2023-01-28T01:03:57;97371.62;;;6.28;34.46
47082;BME280;33066;49.296;14.470;2023-01-28T01:06:24;97372.02;;;6.24;34.53
47082;BME280;33066;49.296;14.470;2023-01-28T01:08:48;97371.43;;;6.34;34.55
47082;BME280;33066;49.296;14.470;2023-01-28T01:11:14;97374.98;;;6.31;34.64
47082;BME280;33066;49.296;14.470;2023-01-28T01:13:40;97376.94;;;6.36;34.72
47082;BME280;33066;49.296;14.470;2023-01-28T01:16:07;97374.72;;;6.32;34.76
47082;BME280;33066;49.296;14.470;2023-01-28T01:18:30;97375.11;;;6.25;34.98
47082;BME280;33066;49.296;14.470;2023-01-28T01:20:58;97374.32;;;6.22;35.02
47082;BME280;33066;49.296;14.470;2023-01-28T01:23:21;97379.85;;;6.45;35.26
47082;BME280;33066;49.296;14.470;2023-01-28T01:25:47;97381.56;;;6.28;35.33
47082;BME280;33066;49.296;14.470;2023-01-28T01:28:14;97382.34;;;6.12;35.24
47082;BME280;33066;49.296;14.470;2023-01-28T01:30:37;97378.24;;;6.36;35.28
47082;BME280;33066;49.296;14.470;2023-01-28T01:33:03;97375.86;;;6.33;35.43
47082;BME280;33066;49.296;14.470;2023-01-28T01:35:28;97377.28;;;6.34;35.50
47082;BME280;33066;49.296;14.470;2023-01-28T01:37:54;97376.00;;;6.27;35.62
47082;BME280;33066;49.296;14.470;2023-01-28T01:40:19;97374.94;;;6.32;35.62
47082;BME280;33066;49.296;14.470;2023-01-28T01:42:44;97375.45;;;6.37;35.65
47082;BME280;33066;49.296;14.470;2023-01-28T01:45:12;97378.51;;;6.40;35.75
47082;BME280;33066;49.296;14.470;2023-01-28T01:47:40;97377.23;;;6.44;35.91
47082;BME280;33066;49.296;14.470;2023-01-28T01:50:08;97378.31;;;6.45;35.86
47082;BME280;33066;49.296;14.470;2023-01-28T01:52:30;97379.73;;;6.45;35.85
47082;BME280;33066;49.296;14.470;2023-01-28T01:54:54;97380.26;;;6.20;36.02
47082;BME280;33066;49.296;14.470;2023-01-28T01:57:21;97381.30;;;6.51;36.03
47082;BME280;33066;49.296;14.470;2023-01-28T01:59:43;97383.20;;;6.54;35.97
47082;BME280;33066;49.296;14.470;2023-01-28T02:02:08;97385.05;;;6.48;36.05
47082;BME280;33066;49.296;14.470;2023-01-28T02:04:35;97384.99;;;6.46;36.24
47082;BME280;33066;49.296;14.470;2023-01-28T02:06:59;97390.20;;;6.24;36.13
47082;BME280;33066;49.296;14.470;2023-01-28T02:09:25;97387.64;;;6.50;36.25
47082;BME280;33066;49.296;14.470;2023-01-28T02:11:49;97384.94;;;6.49;36.25
47082;BME280;33066;49.296;14.470;2023-01-28T02:14:14;97383.18;;;6.50;36.46
47082;BME280;33066;49.296;14.470;2023-01-28T02:16:40;97382.99;;;6.55;36.37
47082;BME280;33066;49.296;14.470;2023-01-28T02:19:06;97384.77;;;6.61;36.53
47082;BME280;33066;49.296;14.470;2023-01-28T02:21:52;97385.58;;;6.59;36.75
47082;BME280;33066;49.296;14.470;2023-01-28T02:24:10;97383.06;;;6.64;36.83
47082;BME280;33066;49.296;14.470;2023-01-28T02:26:34;97382.23;;;6.67;36.70
47082;BME280;33066;49.296;14.470;2023-01-28T02:28:51;97383.48;;;6.41;36.79
47082;BME280;33066;49.296;14.470;2023-01-28T02:31:17;97381.15;;;6.59;36.96
47082;BME280;33066;49.296;14.470;2023-01-28T02:33:41;97379.42;;;6.64;36.96
47082;BME280;33066;49.296;14.470;2023-01-28T02:36:12;97383.50;;;6.65;37.07
47082;BME280;33066;49.296;14.470;2023-01-28T02:38:33;97385.42;;;6.74;37.10
47082;BME280;33066;49.296;14.470;2023-01-28T02:40:59;97385.90;;;6.52;36.90
47082;BME280;33066;49.296;14.470;2023-01-28T02:43:29;97388.89;;;6.66;37.05
47082;BME280;33066;49.296;14.470;2023-01-28T02:45:46;97388.26;;;6.59;37.18
47082;BME280;33066;49.296;14.470;2023-01-28T02:48:12;97387.04;;;6.53;37.40
47082;BME280;33066;49.296;14.470;2023-01-28T02:50:42;97390.12;;;6.54;37.46
47082;BME280;33066;49.296;14.470;2023-01-28T02:53:12;97388.65;;;6.47;37.70
47082;BME280;33066;49.296;14.470;2023-01-28T02:55:34;97387.48;;;6.30;37.74
47082;BME280;33066;49.296;14.470;2023-01-28T02:57:59;97391.78;;;6.30;37.90
47082;BME280;33066;49.296;14.470;2023-01-28T03:00:23;97390.47;;;5.64;37.99
47082;BME280;33066;49.296;14.470;2023-01-28T03:02:49;97387.40;;;6.90;36.76
47082;BME280;33066;49.296;14.470;2023-01-28T03:05:15;97389.72;;;7.25;36.92
47082;BME280;33066;49.296;14.470;2023-01-28T03:07:37;97392.25;;;7.17;37.37
47082;BME280;33066;49.296;14.470;2023-01-28T03:10:02;97388.28;;;6.69;37.71
47082;BME280;33066;49.296;14.470;2023-01-28T03:12:27;97392.83;;;6.90;37.81
47082;BME280;33066;49.296;14.470;2023-01-28T03:14:53;97390.18;;;6.54;38.05
47082;BME280;33066;49.296;14.470;2023-01-28T03:17:18;97391.20;;;6.78;38.17
47082;BME280;33066;49.296;14.470;2023-01-28T03:19:41;97392.81;;;6.73;38.24
47082;BME280;33066;49.296;14.470;2023-01-28T03:22:06;97389.71;;;6.66;38.56
47082;BME280;33066;49.296;14.470;2023-01-28T03:24:34;97391.04;;;6.75;38.48
47082;BME280;33066;49.296;14.470;2023-01-28T03:27:01;97393.15;;;6.64;38.64
47082;BME280;33066;49.296;14.470;2023-01-28T03:29:23;97393.16;;;6.68;38.62
47082;BME280;33066;49.296;14.470;2023-01-28T03:31:47;97394.72;;;6.67;38.77
47082;BME280;33066;49.296;14.470;2023-01-28T03:34:13;97398.12;;;6.38;38.81
47082;BME280;33066;49.296;14.470;2023-01-28T03:36:38;97401.24;;;6.55;38.98
47082;BME280;33066;49.296;14.470;2023-01-28T03:39:03;97400.87;;;6.61;38.88
47082;BME280;33066;49.296;14.470;2023-01-28T03:41:28;97401.76;;;6.59;39.06
47082;BME280;33066;49.296;14.470;2023-01-28T03:43:54;97402.73;;;6.29;39.18
47082;BME280;33066;49.296;14.470;2023-01-28T03:46:19;97404.29;;;6.43;39.33
47082;BME280;33066;49.296;14.470;2023-01-28T03:48:45;97402.81;;;6.38;39.49
47082;BME280;33066;49.296;14.470;2023-01-28T03:51:10;97402.45;;;6.32;39.56
47082;BME280;33066;49.296;14.470;2023-01-28T03:53:37;97399.81;;;6.27;39.47
47082;BME280;33066;49.296;14.470;2023-01-28T03:56:01;97400.15;;;6.15;39.76
47082;BME280;33066;49.296;14.470;2023-01-28T03:58:26;97403.15;;;6.19;39.76
47082;BME280;33066;49.296;14.470;2023-01-28T04:00:52;97406.78;;;6.15;39.65
47082;BME280;33066;49.296;14.470;2023-01-28T04:03:19;97407.24;;;5.91;40.06
47082;BME280;33066;49.296;14.470;2023-01-28T04:05:44;97409.62;;;5.85;40.31
47082;BME280;33066;49.296;14.470;2023-01-28T04:08:08;97408.36;;;5.78;40.33
47082;BME280;33066;49.296;14.470;2023-01-28T04:12:59;97406.26;;;6.40;39.70
47082;BME280;33066;49.296;14.470;2023-01-28T04:15:25;97403.01;;;6.31;39.58
47082;BME280;33066;49.296;14.470;2023-01-28T04:17:50;97400.23;;;6.08;39.80
47082;BME280;33066;49.296;14.470;2023-01-28T04:20:16;97400.09;;;6.13;40.06
47082;BME280;33066;49.296;14.470;2023-01-28T04:22:41;97399.89;;;5.82;40.16
47082;BME280;33066;49.296;14.470;2023-01-28T04:25:07;97403.10;;;5.77;40.21
47082;BME280;33066;49.296;14.470;2023-01-28T04:27:31;97405.71;;;5.63;40.47
47082;BME280;33066;49.296;14.470;2023-01-28T04:29:56;97405.64;;;5.53;40.55
47082;BME280;33066;49.296;14.470;2023-01-28T04:32:22;97405.42;;;5.96;40.83
47082;BME280;33066;49.296;14.470;2023-01-28T04:34:48;97406.20;;;5.67;40.57
47082;BME280;33066;49.296;14.470;2023-01-28T04:37:13;97405.91;;;6.18;40.61
47082;BME280;33066;49.296;14.470;2023-01-28T04:39:38;97406.97;;;5.66;40.58
47082;BME280;33066;49.296;14.470;2023-01-28T04:42:04;97409.10;;;6.09;40.52
47082;BME280;33066;49.296;14.470;2023-01-28T04:44:29;97409.72;;;5.86;40.39
47082;BME280;33066;49.296;14.470;2023-01-28T04:46:54;97405.49;;;6.37;40.41
47082;BME280;33066;49.296;14.470;2023-01-28T04:49:19;97409.42;;;5.92;40.24
47082;BME280;33066;49.296;14.470;2023-01-28T04:51:45;97417.32;;;5.86;40.39
47082;BME280;33066;49.296;14.470;2023-01-28T04:54:10;97415.01;;;5.92;40.37
47082;BME280;33066;49.296;14.470;2023-01-28T04:56:36;97416.61;;;5.99;40.19
47082;BME280;33066;49.296;14.470;2023-01-28T04:59:01;97418.11;;;5.89;40.10
47082;BME280;33066;49.296;14.470;2023-01-28T05:01:27;97418.51;;;5.88;40.32
47082;BME280;33066;49.296;14.470;2023-01-28T05:03:52;97417.54;;;6.26;41.59
47082;BME280;33066;49.296;14.470;2023-01-28T05:06:18;97416.80;;;5.80;41.97
47082;BME280;33066;49.296;14.470;2023-01-28T05:08:43;97416.34;;;5.93;42.87
47082;BME280;33066;49.296;14.470;2023-01-28T05:11:09;97420.72;;;5.77;42.92
47082;BME280;33066;49.296;14.470;2023-01-28T05:13:35;97422.29;;;5.71;42.92
47082;BME280;33066;49.296;14.470;2023-01-28T05:16:00;97420.83;;;5.68;42.63
47082;BME280;33066;49.296;14.470;2023-01-28T05:18:26;97423.96;;;5.70;42.49
47082;BME280;33066;49.296;14.470;2023-01-28T05:20:51;97425.30;;;5.81;42.69
47082;BME280;33066;49.296;14.470;2023-01-28T05:23:17;97423.92;;;5.89;42.78
47082;BME280;33066;49.296;14.470;2023-01-28T05:25:42;97421.53;;;6.07;42.57
47082;BME280;33066;49.296;14.470;2023-01-28T05:28:08;97420.39;;;6.23;42.37
47082;BME280;33066;49.296;14.470;2023-01-28T05:30:33;97419.35;;;5.64;41.83
47082;BME280;33066;49.296;14.470;2023-01-28T05:32:59;97422.84;;;5.54;42.18
47082;BME280;33066;49.296;14.470;2023-01-28T05:35:24;97421.83;;;5.76;42.03
47082;BME280;33066;49.296;14.470;2023-01-28T05:37:50;97422.55;;;5.96;41.89
47082;BME280;33066;49.296;14.470;2023-01-28T05:40:15;97426.37;;;5.44;42.22
47082;BME280;33066;49.296;14.470;2023-01-28T05:42:40;97423.57;;;5.70;41.99
47082;BME280;33066;49.296;14.470;2023-01-28T05:45:07;97428.67;;;5.43;42.11
47082;BME280;33066;49.296;14.470;2023-01-28T05:47:32;97429.78;;;5.95;42.17
47082;BME280;33066;49.296;14.470;2023-01-28T05:49:56;97428.17;;;5.55;41.89
47082;BME280;33066;49.296;14.470;2023-01-28T05:52:22;97427.22;;;5.62;42.10
47082;BME280;33066;49.296;14.470;2023-01-28T05:54:48;97425.56;;;6.08;41.98
47082;BME280;33066;49.296;14.470;2023-01-28T05:57:13;97428.09;;;5.52;41.67
47082;BME280;33066;49.296;14.470;2023-01-28T05:59:39;97429.95;;;5.60;42.17
47082;BME280;33066;49.296;14.470;2023-01-28T06:02:04;97431.40;;;5.72;41.86
47082;BME280;33066;49.296;14.470;2023-01-28T06:04:29;97430.52;;;5.74;41.01
47082;BME280;33066;49.296;14.470;2023-01-28T06:06:55;97430.51;;;5.76;40.73
47082;BME280;33066;49.296;14.470;2023-01-28T06:09:21;97432.13;;;5.80;40.27
47082;BME280;33066;49.296;14.470;2023-01-28T06:11:46;97431.80;;;6.01;40.19
47082;BME280;33066;49.296;14.470;2023-01-28T06:14:12;97433.69;;;5.69;40.37
47082;BME280;33066;49.296;14.470;2023-01-28T06:16:38;97440.38;;;5.54;40.32
47082;BME280;33066;49.296;14.470;2023-01-28T06:19:03;97442.87;;;5.73;40.42
47082;BME280;33066;49.296;14.470;2023-01-28T06:21:29;97446.93;;;5.77;40.32
47082;BME280;33066;49.296;14.470;2023-01-28T06:23:54;97446.45;;;5.49;40.63
47082;BME280;33066;49.296;14.470;2023-01-28T06:26:19;97446.70;;;5.85;40.32
47082;BME280;33066;49.296;14.470;2023-01-28T06:28:44;97448.17;;;6.20;40.25
47082;BME280;33066;49.296;14.470;2023-01-28T06:31:09;97449.45;;;6.29;39.91
47082;BME280;33066;49.296;14.470;2023-01-28T06:33:35;97452.25;;;6.03;39.86
47082;BME280;33066;49.296;14.470;2023-01-28T06:36:02;97454.24;;;5.69;40.08
47082;BME280;33066;49.296;14.470;2023-01-28T06:38:26;97457.89;;;5.76;40.10
47082;BME280;33066;49.296;14.470;2023-01-28T06:40:52;97459.58;;;6.13;39.90
47082;BME280;33066;49.296;14.470;2023-01-28T06:43:17;97461.17;;;5.84;39.77
47082;BME280;33066;49.296;14.470;2023-01-28T06:45:42;97466.13;;;5.67;39.92
47082;BME280;33066;49.296;14.470;2023-01-28T06:48:08;97468.61;;;5.61;40.02
47082;BME280;33066;49.296;14.470;2023-01-28T06:50:33;97469.14;;;5.75;39.81
47082;BME280;33066;49.296;14.470;2023-01-28T06:52:59;97474.63;;;6.05;39.82
47082;BME280;33066;49.296;14.470;2023-01-28T06:55:24;97473.15;;;5.89;39.79
47082;BME280;33066;49.296;14.470;2023-01-28T06:57:50;97475.43;;;5.98;39.77
47082;BME280;33066;49.296;14.470;2023-01-28T07:00:15;97480.38;;;5.99;39.59
47082;BME280;33066;49.296;14.470;2023-01-28T07:02:40;97479.85;;;6.03;40.22
47082;BME280;33066;49.296;14.470;2023-01-28T07:05:06;97481.88;;;5.92;41.15
47082;BME280;33066;49.296;14.470;2023-01-28T07:07:31;97485.28;;;5.86;41.59
47082;BME280;33066;49.296;14.470;2023-01-28T07:09:56;97490.16;;;5.78;41.79
47082;BME280;33066;49.296;14.470;2023-01-28T07:12:21;97495.34;;;6.25;42.44
47082;BME280;33066;49.296;14.470;2023-01-28T07:14:46;97496.59;;;5.90;42.66
47082;BME280;33066;49.296;14.470;2023-01-28T07:17:12;97497.44;;;5.87;41.68
47082;BME280;33066;49.296;14.470;2023-01-28T07:19:37;97503.12;;;6.05;42.14
47082;BME280;33066;49.296;14.470;2023-01-28T07:22:03;97504.06;;;5.88;42.04
47082;BME280;33066;49.296;14.470;2023-01-28T07:24:29;97502.77;;;5.98;41.44
47082;BME280;33066;49.296;14.470;2023-01-28T07:26:54;97508.55;;;5.89;41.23
47082;BME280;33066;49.296;14.470;2023-01-28T07:29:20;97506.41;;;5.91;41.28
47082;BME280;33066;49.296;14.470;2023-01-28T07:31:46;97513.42;;;5.78;40.94
47082;BME280;33066;49.296;14.470;2023-01-28T07:34:11;97513.72;;;6.11;41.46
47082;BME280;33066;49.296;14.470;2023-01-28T07:36:37;97518.19;;;5.90;41.03
47082;BME280;33066;49.296;14.470;2023-01-28T07:39:03;97517.58;;;5.90;41.12
47082;BME280;33066;49.296;14.470;2023-01-28T07:41:27;97519.05;;;6.03;41.35
47082;BME280;33066;49.296;14.470;2023-01-28T07:43:53;97522.00;;;6.06;41.09
47082;BME280;33066;49.296;14.470;2023-01-28T07:46:18;97527.04;;;5.91;41.08
47082;BME280;33066;49.296;14.470;2023-01-28T07:48:44;97527.41;;;5.92;40.24
47082;BME280;33066;49.296;14.470;2023-01-28T07:51:09;97526.30;;;6.19;41.09
47082;BME280;33066;49.296;14.470;2023-01-28T07:53:35;97525.43;;;6.04;40.96
47082;BME280;33066;49.296;14.470;2023-01-28T07:56:00;97531.45;;;6.05;41.44
47082;BME280;33066;49.296;14.470;2023-01-28T07:58:25;97534.13;;;6.16;41.20
47082;BME280;33066;49.296;14.470;2023-01-28T08:00:50;97538.73;;;6.32;41.27
47082;BME280;33066;49.296;14.470;2023-01-28T08:03:16;97539.32;;;6.25;40.38
47082;BME280;33066;49.296;14.470;2023-01-28T08:05:44;97542.38;;;6.27;39.86
47082;BME280;33066;49.296;14.470;2023-01-28T08:08:07;97545.93;;;6.46;39.55
47082;BME280;33066;49.296;14.470;2023-01-28T08:10:33;97547.50;;;6.30;39.28
47082;BME280;33066;49.296;14.470;2023-01-28T08:12:57;97548.30;;;6.44;39.26
47082;BME280;33066;49.296;14.470;2023-01-28T08:15:23;97550.49;;;6.36;39.33
47082;BME280;33066;49.296;14.470;2023-01-28T08:17:48;97549.57;;;6.42;39.24
47082;BME280;33066;49.296;14.470;2023-01-28T08:20:14;97551.13;;;6.46;39.28
47082;BME280;33066;49.296;14.470;2023-01-28T08:22:39;97553.07;;;6.49;39.35
47082;BME280;33066;49.296;14.470;2023-01-28T08:25:05;97554.31;;;6.59;39.09
47082;BME280;33066;49.296;14.470;2023-01-28T08:27:30;97558.54;;;6.63;39.01
47082;BME280;33066;49.296;14.470;2023-01-28T08:29:55;97558.65;;;6.58;38.88
47082;BME280;33066;49.296;14.470;2023-01-28T08:32:20;97557.11;;;6.66;38.94
47082;BME280;33066;49.296;14.470;2023-01-28T08:34:46;97558.20;;;6.66;38.98
47082;BME280;33066;49.296;14.470;2023-01-28T08:37:11;97560.56;;;6.37;38.85
47082;BME280;33066;49.296;14.470;2023-01-28T08:39:36;97557.01;;;6.33;38.93
47082;BME280;33066;49.296;14.470;2023-01-28T08:42:02;97556.19;;;6.55;38.99
47082;BME280;33066;49.296;14.470;2023-01-28T08:44:27;97557.42;;;6.42;38.98
47082;BME280;33066;49.296;14.470;2023-01-28T08:46:53;97560.04;;;6.74;39.09
47082;BME280;33066;49.296;14.470;2023-01-28T08:49:18;97561.55;;;6.79;38.76
47082;BME280;33066;49.296;14.470;2023-01-28T08:51:43;97563.30;;;6.59;38.80
47082;BME280;33066;49.296;14.470;2023-01-28T08:54:09;97562.68;;;6.63;38.73
47082;BME280;33066;49.296;14.470;2023-01-28T08:56:35;97566.07;;;6.73;38.67
47082;BME280;33066;49.296;14.470;2023-01-28T08:59:00;97567.82;;;6.54;38.64
47082;BME280;33066;49.296;14.470;2023-01-28T09:01:26;97567.40;;;6.52;38.92
47082;BME280;33066;49.296;14.470;2023-01-28T09:03:51;97565.68;;;6.51;39.15
47082;BME280;33066;49.296;14.470;2023-01-28T09:06:16;97566.04;;;6.60;39.08
47082;BME280;33066;49.296;14.470;2023-01-28T09:08:42;97569.55;;;6.57;39.08
47082;BME280;33066;49.296;14.470;2023-01-28T09:11:07;97567.08;;;6.57;39.20
47082;BME280;33066;49.296;14.470;2023-01-28T09:13:32;97572.18;;;6.08;39.79
47082;BME280;33066;49.296;14.470;2023-01-28T09:15:57;97577.61;;;5.98;39.92
47082;BME280;33066;49.296;14.470;2023-01-28T09:18:23;97583.02;;;6.14;40.05
47082;BME280;33066;49.296;14.470;2023-01-28T09:20:48;97581.92;;;5.96;40.05
47082;BME280;33066;49.296;14.470;2023-01-28T09:23:14;97578.52;;;6.09;40.05
47082;BME280;33066;49.296;14.470;2023-01-28T09:25:39;97579.09;;;6.26;39.92
47082;BME280;33066;49.296;14.470;2023-01-28T09:28:05;97579.53;;;6.04;39.73
47082;BME280;33066;49.296;14.470;2023-01-28T09:30:31;97584.94;;;6.42;39.69
47082;BME280;33066;49.296;14.470;2023-01-28T09:32:57;97584.05;;;6.43;39.54
47082;BME280;33066;49.296;14.470;2023-01-28T09:35:22;97586.27;;;6.44;39.69
47082;BME280;33066;49.296;14.470;2023-01-28T09:37:48;97585.55;;;6.24;39.59
47082;BME280;33066;49.296;14.470;2023-01-28T09:40:15;97587.86;;;6.58;39.45
47082;BME280;33066;49.296;14.470;2023-01-28T09:42:50;97595.60;;;6.47;39.45
47082;BME280;33066;49.296;14.470;2023-01-28T09:45:11;97594.85;;;6.54;39.36
47082;BME280;33066;49.296;14.470;2023-01-28T09:47:33;97594.13;;;6.50;39.51
47082;BME280;33066;49.296;14.470;2023-01-28T09:49:58;97595.87;;;6.21;39.49
47082;BME280;33066;49.296;14.470;2023-01-28T09:52:23;97594.71;;;6.36;39.63
47082;BME280;33066;49.296;14.470;2023-01-28T09:54:48;97598.76;;;6.61;39.70
47082;BME280;33066;49.296;14.470;2023-01-28T09:57:16;97594.96;;;6.36;39.75
47082;BME280;33066;49.296;14.470;2023-01-28T09:59:36;97592.28;;;6.38;39.74
47082;BME280;33066;49.296;14.470;2023-01-28T10:02:13;97590.74;;;6.34;40.18
47082;BME280;33066;49.296;14.470;2023-01-28T10:04:43;97590.85;;;6.46;41.41
47082;BME280;33066;49.296;14.470;2023-01-28T10:07:00;97590.32;;;6.33;42.13
47082;BME280;33066;49.296;14.470;2023-01-28T10:09:24;97593.37;;;6.57;41.87
47082;BME280;33066;49.296;14.470;2023-01-28T10:11:53;97594.22;;;6.18;41.88
47082;BME280;33066;49.296;14.470;2023-01-28T10:14:15;97592.99;;;6.46;42.51
47082;BME280;33066;49.296;14.470;2023-01-28T10:16:37;97594.40;;;6.40;42.17
47082;BME280;33066;49.296;14.470;2023-01-28T10:19:03;97591.07;;;6.35;42.72
47082;BME280;33066;49.296;14.470;2023-01-28T10:21:27;97590.39;;;6.27;42.74
47082;BME280;33066;49.296;14.470;2023-01-28T10:23:56;97589.70;;;6.24;43.15
47082;BME280;33066;49.296;14.470;2023-01-28T10:26:21;97587.73;;;6.23;42.68
47082;BME280;33066;49.296;14.470;2023-01-28T10:28:39;97586.05;;;6.32;42.34
47082;BME280;33066;49.296;14.470;2023-01-28T10:31:11;97588.53;;;5.91;42.12
47082;BME280;33066;49.296;14.470;2023-01-28T10:33:34;97591.94;;;5.99;42.55
47082;BME280;33066;49.296;14.470;2023-01-28T10:35:56;97590.15;;;5.86;42.15
47082;BME280;33066;49.296;14.470;2023-01-28T10:38:23;97591.95;;;5.83;42.04
47082;BME280;33066;49.296;14.470;2023-01-28T10:40:47;97592.40;;;6.01;41.99
47082;BME280;33066;49.296;14.470;2023-01-28T10:43:12;97591.64;;;5.75;42.06
47082;BME280;33066;49.296;14.470;2023-01-28T10:45:44;97593.91;;;5.80;41.57
47082;BME280;33066;49.296;14.470;2023-01-28T10:48:07;97596.92;;;5.72;42.19
47082;BME280;33066;49.296;14.470;2023-01-28T10:50:30;97598.32;;;5.88;41.89
47082;BME280;33066;49.296;14.470;2023-01-28T10:52:55;97599.79;;;5.86;42.48
47082;BME280;33066;49.296;14.470;2023-01-28T10:55:20;97599.95;;;5.77;41.72
47082;BME280;33066;49.296;14.470;2023-01-28T10:57:44;97602.50;;;5.74;42.07
47082;BME280;33066;49.296;14.470;2023-01-28T11:00:16;97600.87;;;6.09;42.60
47082;BME280;33066;49.296;14.470;2023-01-28T11:02:35;97602.07;;;5.93;41.54
47082;BME280;33066;49.296;14.470;2023-01-28T11:05:04;97604.48;;;5.66;41.10
47082;BME280;33066;49.296;14.470;2023-01-28T11:07:26;97601.45;;;6.01;40.87
47082;BME280;33066;49.296;14.470;2023-01-28T11:09:52;97600.82;;;5.82;40.57
47082;BME280;33066;49.296;14.470;2023-01-28T11:12:20;97603.02;;;5.79;40.49
47082;BME280;33066;49.296;14.470;2023-01-28T11:14:49;97602.48;;;5.71;40.49
47082;BME280;33066;49.296;14.470;2023-01-28T11:17:15;97603.91;;;6.08;40.57
47082;BME280;33066;49.296;14.470;2023-01-28T11:19:35;97603.45;;;5.78;40.63
47082;BME280;33066;49.296;14.470;2023-01-28T11:21:59;97605.65;;;6.17;40.67
47082;BME280;33066;49.296;14.470;2023-01-28T11:24:27;97606.87;;;5.64;40.54
47082;BME280;33066;49.296;14.470;2023-01-28T11:26:52;97611.79;;;5.70;40.39
47082;BME280;33066;49.296;14.470;2023-01-28T11:29:22;97611.81;;;5.99;40.39
47082;BME280;33066;49.296;14.470;2023-01-28T11:31:43;97614.38;;;6.17;40.22
47082;BME280;33066;49.296;14.470;2023-01-28T11:34:07;97612.90;;;6.12;39.94
47082;BME280;33066;49.296;14.470;2023-01-28T11:36:34;97611.94;;;6.28;40.02
47082;BME280;33066;49.296;14.470;2023-01-28T11:38:59;97611.08;;;5.86;39.87
47082;BME280;33066;49.296;14.470;2023-01-28T11:41:27;97610.49;;;5.41;40.18
47082;BME280;33066;49.296;14.470;2023-01-28T11:43:49;97615.29;;;5.65;40.42
47082;BME280;33066;49.296;14.470;2023-01-28T11:48:47;97611.72;;;5.66;40.65
47082;BME280;33066;49.296;14.470;2023-01-28T11:51:15;97614.32;;;5.74;40.72
47082;BME280;33066;49.296;14.470;2023-01-28T11:53:41;97610.59;;;5.85;40.68
47082;BME280;33066;49.296;14.470;2023-01-28T11:56:08;97609.44;;;5.50;40.47
47082;BME280;33066;49.296;14.470;2023-01-28T11:58:29;97608.98;;;5.87;40.38
47082;BME280;33066;49.296;14.470;2023-01-28T12:00:53;97608.30;;;5.67;40.05
47082;BME280;33066;49.296;14.470;2023-01-28T12:03:32;97608.95;;;5.78;40.74
47082;BME280;33066;49.296;14.470;2023-01-28T12:05:48;97603.66;;;5.70;41.82
47082;BME280;33066;49.296;14.470;2023-01-28T12:08:08;97611.03;;;5.42;42.01
47082;BME280;33066;49.296;14.470;2023-01-28T12:10:33;97612.37;;;5.67;42.64
47082;BME280;33066;49.296;14.470;2023-01-28T12:13:03;97616.45;;;5.73;42.88
47082;BME280;33066;49.296;14.470;2023-01-28T12:15:31;97616.76;;;5.58;42.91
47082;BME280;33066;49.296;14.470;2023-01-28T12:17:55;97612.06;;;5.45;42.78
47082;BME280;33066;49.296;14.470;2023-01-28T12:20:17;97608.90;;;5.47;42.10
47082;BME280;33066;49.296;14.470;2023-01-28T12:22:48;97609.35;;;5.64;41.74
47082;BME280;33066;49.296;14.470;2023-01-28T12:25:13;97613.53;;;5.70;41.72
47082;BME280;33066;49.296;14.470;2023-01-28T12:27:36;97614.62;;;5.66;42.09
47082;BME280;33066;49.296;14.470;2023-01-28T12:29:58;97615.14;;;5.47;42.05
47082;BME280;33066;49.296;14.470;2023-01-28T12:32:32;97615.61;;;5.70;41.66
47082;BME280;33066;49.296;14.470;2023-01-28T12:35:00;97611.90;;;5.51;41.75
47082;BME280;33066;49.296;14.470;2023-01-28T12:37:14;97612.61;;;5.89;41.86
47082;BME280;33066;49.296;14.470;2023-01-28T12:39:41;97613.69;;;5.75;40.99
47082;BME280;33066;49.296;14.470;2023-01-28T12:42:04;97614.25;;;6.19;40.78
47082;BME280;33066;49.296;14.470;2023-01-28T12:44:26;97615.96;;;6.33;41.07
47082;BME280;33066;49.296;14.470;2023-01-28T12:46:51;97614.96;;;5.87;40.30
47082;BME280;33066;49.296;14.470;2023-01-28T12:49:18;97616.64;;;5.83;40.11
47082;BME280;33066;49.296;14.470;2023-01-28T12:51:47;97615.76;;;5.86;41.05
47082;BME280;33066;49.296;14.470;2023-01-28T12:54:11;97618.25;;;6.12;40.79